Location Littleton, CO, US

ob KCOLITTL9 221230Z AUTO 02000KT OVC065 M10/M12 A3033 RMK SLPNO 

2018.02.22 1230 UTC
Wind from the NNE (18 degrees) at Calm MPH ( KT) gusting to 0.0 MPH (0 KT)
Visibility    Mile(s)
Sky Conditions  overcast
Temperature 14.40 F (-10 C)
Dew Point 9.92 F (-12 C)
Relative Humidity 82%
Pressure   30.33 in. Hg (1027 hPa)
Rain  0.00 in.
Daily Rain  in.

Station Name  Southglenn Weather
Longitude, Latitude  -105.097859501839, 39.5649194844331
Elevation 5630
Station URL http://weather.mfc-cs.com
Software Type VWS V15.00